Mexico, MO

2:57 PM CDT on March 28, 2017 (GMT -0500)
Near Lakeview Lake | | Change Station

Elev 817 ft 39.16 °N, 91.89 °W | Updated 6 seconds ago

Overcast
Overcast
56.9 °F
Feels Like 56.9 °F
N
2.0
Wind Variable Wind from NNW
Gusts 3.0 mph

Today
High -- | Low -- °F
--% Chance of Precip.
Yesterday
High -- | Low -- °F
Precip. -- in
Pressure 30.05 in
Visibility 10.0 miles
Clouds Mostly Cloudy 1700 ft
Mostly Cloudy 2200 ft
Overcast 4300 ft
Dew Point 50 °F
Humidity 79%
Rainfall 0.00 in
Snow Depth Not available.
6:57 AM 7:27 PM
New Moon, 1% visible
METAR KCOU 281954Z 11004KT 10SM BKN017 BKN022 OVC043 14/11 A3005 RMK AO2 SLP176 T01390106
Pressure 30.05 in
Visibility 10.0 miles
Clouds Mostly Cloudy 1700 ft
Mostly Cloudy 2200 ft
Overcast 4300 ft
Dew Point 50 °F
Humidity 79%
Rainfall 0.00 in
Snow Depth Not available.
6:57 AM 7:27 PM
New Moon, 1% visible
METAR KCOU 281954Z 11004KT 10SM BKN017 BKN022 OVC043 14/11 A3005 RMK AO2 SLP176 T01390106

Get Severe Weather Alerts

Thanks for signing up!

Be on the lookout for a verification email in your inbox.

You'll start receiving the daily forecast at 8 AM.

×

10-Day Weather Forecast

Almanac

Astronomy

Mar. 28, 2017 Rise Set
Actual Time
Civil Twilight
Nautical Twilight
Astronomical Twilight
Moon
Length of Visible Light
Length of Day
Tomorrow will be .
, % of the Moon is Illuminated

Today's Extremes

State Highs State Lows

Community

WunderPhotos

Upload Photos

1,962,540 photos uploaded!

WunderBlog® & News

Nearby

Air Quality

  Air Quality AQ Index Pollutant
Not available.

Snow Depth

Station Depth Elevation

Earthquake Activity

City Distance Mag. Time & Date
Minimum magnitude displayed is 2.5.

Earthquake Activity

City Distance Mag. Time & Date
Minimum magnitude displayed is 2.5.

Coastal Water Temperatures

Place Temperature

Stations

Nearby Weather Stations

Station Location Temp. Windchill Dew Point Humidity Wind Precip. Elev Updated Type
                   

Watches & Warnings

There are currently no watches in effect.